createdAt,value
2023-03-17T06:49:34.378Z,100129.79
2023-03-17T06:52:01.383Z,100127.80
2023-03-17T06:54:29.134Z,100131.56
2023-03-17T06:56:58.041Z,100133.39
2023-03-17T06:59:24.989Z,100143.09
2023-03-17T07:01:52.304Z,100152.00
2023-03-17T07:04:19.845Z,100149.89
2023-03-17T07:06:46.541Z,100147.10
2023-03-17T07:09:13.155Z,100147.00
2023-03-17T07:11:39.926Z,100152.65
2023-03-17T07:14:06.867Z,100155.10
2023-03-17T07:16:33.568Z,100161.09
2023-03-17T07:19:01.554Z,100167.38
2023-03-17T07:21:28.096Z,100172.73
2023-03-17T07:23:55.163Z,100174.88
2023-03-17T07:26:21.821Z,100178.13
2023-03-17T07:28:52.270Z,100183.30
2023-03-17T07:31:21.478Z,100185.13
2023-03-17T07:33:48.134Z,100186.98
2023-03-17T07:36:15.958Z,100189.70
2023-03-17T07:38:43.314Z,100192.19
2023-03-17T07:41:10.995Z,100190.86
2023-03-17T07:43:38.008Z,100185.20
2023-03-17T07:46:06.385Z,100183.45
2023-03-17T07:48:33.490Z,100177.66
2023-03-17T07:51:00.541Z,100172.02
2023-03-17T07:53:27.311Z,100166.71
2023-03-17T07:55:54.978Z,100158.95
2023-03-17T07:58:21.797Z,100154.02
2023-03-17T08:00:48.748Z,100140.70
2023-03-17T08:03:15.559Z,100140.29
2023-03-17T08:05:42.110Z,100138.61
2023-03-17T08:08:08.653Z,100147.30
2023-03-17T08:10:35.925Z,100146.29
2023-03-17T08:13:02.733Z,100149.38
2023-03-17T08:15:31.412Z,100139.45
2023-03-17T08:17:57.947Z,100136.27
2023-03-17T08:20:24.570Z,100128.42
2023-03-17T08:22:51.485Z,100133.30
2023-03-17T08:25:18.200Z,100137.75
2023-03-17T08:27:47.597Z,100133.63
2023-03-17T08:30:14.277Z,100141.98
2023-03-17T08:32:41.225Z,100141.38
2023-03-17T08:35:07.899Z,100131.82
2023-03-17T08:37:34.488Z,100126.37
2023-03-17T08:40:01.358Z,100116.16
2023-03-17T08:42:28.120Z,100106.70
2023-03-17T08:44:54.701Z,100105.30
2023-03-17T08:47:21.811Z,100103.80
2023-03-17T08:49:48.338Z,100107.27
2023-03-17T08:52:14.884Z,100104.98
2023-03-17T08:54:41.447Z,100099.55
2023-03-17T08:57:08.108Z,100087.40
2023-03-17T08:59:34.717Z,100084.73
2023-03-17T09:02:01.406Z,100089.44
2023-03-17T09:04:28.293Z,100094.80
2023-03-17T09:07:03.403Z,100094.36
2023-03-17T09:09:31.254Z,100091.74
2023-03-17T09:12:00.306Z,100092.98
2023-03-17T09:14:27.654Z,100075.20
2023-03-17T09:16:54.685Z,100065.10
2023-03-17T09:19:21.963Z,100066.80
2023-03-17T09:21:48.712Z,100055.19
2023-03-17T09:24:15.241Z,100061.65
2023-03-17T09:26:41.794Z,100067.65
2023-03-17T09:29:08.334Z,100064.82
2023-03-17T09:31:36.627Z,100059.93
2023-03-17T09:34:05.189Z,100063.67
2023-03-17T09:36:33.246Z,100062.42
2023-03-17T09:39:00.623Z,100059.11
2023-03-17T09:41:33.563Z,100058.80
2023-03-17T09:44:06.985Z,100059.86
2023-03-17T09:46:40.036Z,100049.88
2023-03-17T09:49:30.003Z,100045.05
2023-03-17T09:51:56.999Z,100038.81
2023-03-17T09:54:23.673Z,100046.27
2023-03-17T09:56:51.430Z,100047.90
2023-03-17T09:59:18.264Z,100049.96
2023-03-17T10:01:44.995Z,100047.21
2023-03-17T10:04:12.113Z,100047.27
2023-03-17T10:06:41.050Z,100059.01
2023-03-17T10:09:27.979Z,100055.45
2023-03-17T10:11:57.719Z,100055.25
2023-03-17T10:14:28.725Z,100056.45
2023-03-17T10:17:00.741Z,100053.55
2023-03-17T10:19:38.740Z,100056.67
2023-03-17T10:22:06.451Z,100061.04
2023-03-17T10:24:33.168Z,100061.26
2023-03-17T10:27:00.610Z,100064.20
2023-03-17T10:29:27.813Z,100053.57
2023-03-17T10:31:56.382Z,100058.05
2023-03-17T10:34:29.246Z,100057.00
2023-03-17T10:36:59.660Z,100054.48
2023-03-17T10:39:27.124Z,100051.20
2023-03-17T10:42:03.527Z,100048.38
2023-03-17T10:44:33.068Z,100043.45
2023-03-17T10:46:59.614Z,100037.17
2023-03-17T10:49:26.730Z,100038.08
2023-03-17T10:51:53.995Z,100034.52
2023-03-17T10:54:20.946Z,100036.16
2023-03-17T10:56:47.930Z,100033.60
2023-03-17T10:59:18.992Z,100027.74
2023-03-17T11:01:58.804Z,100020.98
2023-03-17T11:04:38.434Z,100025.06
2023-03-17T11:07:11.013Z,100016.04
2023-03-17T11:09:37.775Z,100009.98
2023-03-17T11:12:08.964Z,99999.64
2023-03-17T11:14:36.492Z,99996.60
2023-03-17T11:17:04.242Z,99998.25
2023-03-17T11:19:36.958Z,99994.99
2023-03-17T11:22:06.265Z,99994.23
2023-03-17T11:24:33.612Z,99994.80
2023-03-17T11:27:07.094Z,99994.87
2023-03-17T11:29:34.087Z,99992.77
2023-03-17T11:32:19.877Z,99987.66
2023-03-17T11:34:52.301Z,99987.19
2023-03-17T11:37:21.623Z,99987.67
2023-03-17T11:40:14.644Z,99982.77
2023-03-17T11:42:59.435Z,99977.39
2023-03-17T11:45:27.411Z,99981.36
2023-03-17T11:48:03.491Z,99989.34
2023-03-17T11:50:41.231Z,99991.45
2023-03-17T11:53:17.247Z,100001.35
2023-03-17T11:55:53.116Z,100003.58
2023-03-17T11:58:25.152Z,100002.85
2023-03-17T12:00:52.650Z,99991.69
2023-03-17T12:03:22.692Z,99973.03
2023-03-17T12:05:50.276Z,99970.34
2023-03-17T12:08:36.153Z,99964.77
2023-03-17T12:11:02.903Z,99956.81
2023-03-17T12:13:40.251Z,99955.11
2023-03-17T12:16:13.002Z,99942.65
2023-03-17T12:19:05.740Z,99937.84
2023-03-17T12:21:38.135Z,99936.09
2023-03-17T12:24:17.326Z,99941.67
2023-03-17T12:26:57.877Z,99942.25
2023-03-17T12:29:49.795Z,99951.34
2023-03-17T12:32:19.869Z,99941.13
2023-03-17T12:34:50.895Z,99926.42
2023-03-17T12:37:17.679Z,99920.13
2023-03-17T12:39:54.713Z,99914.34
2023-03-17T12:42:24.307Z,99909.70
2023-03-17T12:45:00.151Z,99912.77
2023-03-17T12:47:39.061Z,99911.39
2023-03-17T12:50:09.408Z,99905.19
2023-03-17T12:52:37.662Z,99907.30
2023-03-17T12:55:05.561Z,99909.85
2023-03-17T12:57:37.585Z,99907.27
2023-03-17T13:00:15.627Z,99911.81
2023-03-17T13:02:42.646Z,99906.59
2023-03-17T13:05:10.177Z,99899.05
2023-03-17T13:07:50.091Z,99899.77
2023-03-17T13:10:36.179Z,99896.11
2023-03-17T13:13:07.504Z,99902.84
2023-03-17T13:15:34.069Z,99899.70
2023-03-17T13:18:13.718Z,99899.38
2023-03-17T13:20:44.638Z,99897.80
2023-03-17T13:23:11.262Z,99899.77
2023-03-17T13:25:38.342Z,99897.77
2023-03-17T13:28:13.832Z,99884.23
2023-03-17T13:30:40.604Z,99874.61
2023-03-17T13:33:10.354Z,99871.98
2023-03-17T13:35:47.788Z,99873.95
2023-03-17T13:38:29.825Z,99857.00
2023-03-17T13:41:14.885Z,99856.39
2023-03-17T13:44:00.162Z,99861.23
2023-03-17T13:46:39.897Z,99857.62
2023-03-17T13:49:18.894Z,99858.73
2023-03-17T13:51:59.614Z,99850.75
2023-03-17T13:54:26.713Z,99844.48
2023-03-17T13:56:55.082Z,99848.24
2023-03-17T13:59:22.171Z,99849.47
2023-03-17T14:01:59.807Z,99844.86
2023-03-17T14:04:27.363Z,99838.25
2023-03-17T14:06:55.239Z,99841.51
2023-03-17T14:09:28.450Z,99841.52
2023-03-17T14:11:55.371Z,99843.88
2023-03-17T14:14:36.701Z,99836.14
2023-03-17T14:17:14.527Z,99825.55
2023-03-17T14:19:43.213Z,99833.93
2023-03-17T14:22:23.330Z,99824.99
2023-03-17T14:24:53.840Z,99819.95
2023-03-17T14:27:21.096Z,99816.87
2023-03-17T14:29:47.772Z,99815.83
2023-03-17T14:32:16.002Z,99816.23
2023-03-17T14:34:43.386Z,99812.53
2023-03-17T14:37:11.633Z,99807.33
2023-03-17T14:39:43.742Z,99804.95
2023-03-17T14:42:10.359Z,99805.02
2023-03-17T14:44:40.607Z,99800.73
2023-03-17T14:47:12.262Z,99794.19
2023-03-17T14:49:38.834Z,99791.08
2023-03-17T14:52:05.513Z,99786.69
2023-03-17T14:54:33.570Z,99783.36
2023-03-17T14:57:02.482Z,99776.51
2023-03-17T14:59:42.117Z,99775.52
2023-03-17T15:02:21.822Z,99767.19
2023-03-17T15:04:52.406Z,99766.34
2023-03-17T15:07:45.196Z,99762.73
2023-03-17T15:10:17.088Z,99763.71
2023-03-17T15:12:46.345Z,99759.66
2023-03-17T15:15:27.203Z,99757.11
2023-03-17T15:17:57.357Z,99755.77
2023-03-17T15:20:24.065Z,99748.61
2023-03-17T15:22:57.979Z,99753.40
2023-03-17T15:25:34.723Z,99747.15
2023-03-17T15:28:01.509Z,99746.43
2023-03-17T15:30:44.353Z,99747.52
2023-03-17T15:33:22.375Z,99743.52
2023-03-17T15:35:49.511Z,99748.19
2023-03-17T15:38:16.356Z,99746.22
2023-03-17T15:40:42.883Z,99743.91
2023-03-17T15:43:14.026Z,99745.16
2023-03-17T15:45:42.039Z,99740.94
2023-03-17T15:48:11.903Z,99737.85
2023-03-17T15:50:39.227Z,99740.09
2023-03-17T15:53:05.907Z,99739.09
2023-03-17T15:55:33.122Z,99740.49
2023-03-17T15:57:59.770Z,99749.19
2023-03-17T16:00:29.719Z,99747.84
2023-03-17T16:02:58.330Z,99744.40
2023-03-17T16:05:26.069Z,99749.61
2023-03-17T16:07:53.346Z,99758.58
2023-03-17T16:10:20.970Z,99760.51
2023-03-17T16:12:48.038Z,99763.56
2023-03-17T16:15:22.439Z,99765.77
2023-03-17T16:17:51.256Z,99762.80
2023-03-17T16:20:19.198Z,99765.00
2023-03-17T16:22:46.740Z,99763.41
2023-03-17T16:25:29.695Z,99762.45
2023-03-17T16:27:58.149Z,99766.23
2023-03-17T16:30:29.266Z,99772.15
2023-03-17T16:33:03.011Z,99773.80
2023-03-17T16:35:29.613Z,99768.64
2023-03-17T16:37:56.277Z,99772.54
2023-03-17T16:40:24.367Z,99776.41
2023-03-17T16:42:51.126Z,99772.55
2023-03-17T16:45:21.681Z,99767.08
2023-03-17T16:47:49.321Z,99767.03
2023-03-17T16:50:17.328Z,99769.29
2023-03-17T16:52:43.839Z,99770.15
2023-03-17T16:55:10.578Z,99770.63
2023-03-17T16:57:37.421Z,99773.41
2023-03-17T17:00:04.793Z,99775.78
2023-03-17T17:02:31.455Z,99781.30
2023-03-17T17:04:58.132Z,99778.77
2023-03-17T17:07:24.735Z,99781.04
2023-03-17T17:09:51.260Z,99782.67
2023-03-17T17:12:17.781Z,99783.32
2023-03-17T17:14:44.348Z,99779.12
2023-03-17T17:17:10.908Z,99781.39
2023-03-17T17:19:37.971Z,99779.70
2023-03-17T17:22:04.573Z,99784.69
2023-03-17T17:24:31.208Z,99783.90
2023-03-17T17:26:57.873Z,99777.88
2023-03-17T17:29:24.475Z,99779.05
2023-03-17T17:31:51.670Z,99783.70
2023-03-17T17:34:18.319Z,99785.98
2023-03-17T17:36:46.656Z,99787.22
2023-03-17T17:39:13.771Z,99784.10
2023-03-17T17:41:40.348Z,99784.86
2023-03-17T17:44:07.689Z,99781.16
2023-03-17T17:46:37.799Z,99777.59
2023-03-17T17:49:07.857Z,99774.89
2023-03-17T17:51:34.411Z,99776.09
2023-03-17T17:54:01.124Z,99775.05
2023-03-17T17:56:32.674Z,99775.67
2023-03-17T17:58:59.456Z,99772.28
2023-03-17T18:01:25.998Z,99771.35
2023-03-17T18:03:52.627Z,99773.46
2023-03-17T18:06:19.178Z,99771.91
2023-03-17T18:08:45.875Z,99762.55
2023-03-17T18:11:12.482Z,99762.30
2023-03-17T18:13:40.281Z,99765.61
2023-03-17T18:16:10.219Z,99767.98
2023-03-17T18:18:40.871Z,99767.33
2023-03-17T18:21:08.155Z,99770.66
2023-03-17T18:23:36.485Z,99769.85
2023-03-17T18:26:03.586Z,99768.31
2023-03-17T18:28:30.936Z,99769.30
2023-03-17T18:30:59.178Z,99769.85
2023-03-17T18:33:26.478Z,99774.68
2023-03-17T18:35:55.955Z,99769.56
2023-03-17T18:38:22.567Z,99770.58
2023-03-17T18:40:49.201Z,99766.39
2023-03-17T18:43:16.034Z,99764.52
2023-03-17T18:45:42.595Z,99765.64
2023-03-17T18:48:09.303Z,99765.58
2023-03-17T18:50:37.117Z,99762.94
2023-03-17T18:53:04.079Z,99754.64
2023-03-17T18:55:30.781Z,99757.84
2023-03-17T18:57:58.238Z,99753.92
2023-03-17T19:00:26.061Z,99756.65
2023-03-17T19:02:53.047Z,99754.02
2023-03-17T19:05:20.281Z,99750.52
2023-03-17T19:07:47.008Z,99748.81
2023-03-17T19:10:14.208Z,99750.84
2023-03-17T19:12:41.095Z,99744.66
2023-03-17T19:15:08.125Z,99748.96
2023-03-17T19:17:34.762Z,99745.33
2023-03-17T19:20:01.779Z,99746.22
2023-03-17T19:22:30.645Z,99743.37
2023-03-17T19:33:30.196Z,99740.48
2023-03-17T19:35:58.711Z,99738.96
2023-03-17T19:38:28.642Z,99739.84
2023-03-17T19:40:55.725Z,99738.83
2023-03-17T19:43:39.099Z,99742.41
2023-03-17T19:46:06.429Z,99738.39
2023-03-17T19:48:33.667Z,99737.77
2023-03-17T19:51:01.555Z,99735.06
2023-03-17T19:53:28.215Z,99732.81
2023-03-17T19:55:57.007Z,99732.30
2023-03-17T19:58:27.006Z,99739.45
2023-03-17T20:00:56.446Z,99737.27
2023-03-17T20:03:26.096Z,99734.55
2023-03-17T20:05:52.993Z,99735.89
2023-03-17T20:08:20.081Z,99739.36
2023-03-17T20:10:48.184Z,99742.44
2023-03-17T20:13:14.775Z,99746.12
2023-03-17T20:16:07.323Z,99742.19
2023-03-17T20:18:34.120Z,99741.20
2023-03-17T20:21:01.718Z,99743.65
2023-03-17T20:23:28.369Z,99748.63
2023-03-17T20:25:55.054Z,99748.13
2023-03-17T20:32:18.370Z,99753.45
2023-03-17T20:34:45.029Z,99751.66
2023-03-17T20:41:59.537Z,99755.67
2023-03-17T20:44:26.198Z,99757.92
2023-03-17T20:46:53.607Z,99755.72
2023-03-17T20:49:22.992Z,99757.77
2023-03-17T20:51:49.932Z,99760.89
2023-03-17T20:54:18.042Z,99759.13
2023-03-17T20:56:45.959Z,99761.41
2023-03-17T20:59:13.479Z,99759.84
2023-03-17T21:01:40.586Z,99760.77
2023-03-17T21:04:09.266Z,99759.70
2023-03-17T21:06:38.823Z,99760.97
2023-03-17T21:09:05.460Z,99755.90
2023-03-17T21:11:33.331Z,99755.52
2023-03-17T21:14:00.045Z,99752.31
2023-03-17T21:16:27.916Z,99749.23
2023-03-17T21:18:56.729Z,99745.38
2023-03-17T21:24:52.174Z,99740.36
2023-03-17T21:27:44.143Z,99737.15
2023-03-17T21:30:12.185Z,99735.97
2023-03-17T21:32:39.456Z,99732.55
2023-03-17T21:35:06.803Z,99728.10
2023-03-17T21:41:21.344Z,99720.63
2023-03-17T21:43:49.810Z,99721.02
2023-03-17T21:50:01.585Z,99718.87
2023-03-17T21:52:28.327Z,99717.81
2023-03-17T21:54:58.532Z,99716.52
2023-03-17T21:57:25.653Z,99714.66
2023-03-17T21:59:52.290Z,99713.66
2023-03-17T22:05:29.602Z,99714.23
2023-03-17T22:07:57.283Z,99710.16
2023-03-17T22:10:23.911Z,99715.33
2023-03-17T22:12:52.897Z,99718.13
2023-03-17T22:15:22.599Z,99713.90
2023-03-17T22:17:49.137Z,99710.64
2023-03-17T22:20:18.399Z,99711.35
2023-03-17T22:22:45.002Z,99707.97
2023-03-17T22:25:11.638Z,99708.15
2023-03-17T22:27:38.182Z,99706.75
2023-03-17T22:30:05.018Z,99711.77
2023-03-17T22:32:32.414Z,99704.71
2023-03-17T22:34:59.226Z,99704.33
2023-03-17T22:37:25.837Z,99707.11
2023-03-17T22:39:55.242Z,99705.17
2023-03-17T22:42:22.038Z,99710.50
2023-03-17T22:44:48.668Z,99712.86
2023-03-17T22:47:15.258Z,99711.58
2023-03-17T22:49:41.899Z,99709.94
2023-03-17T22:52:11.723Z,99709.94
2023-03-17T22:54:38.572Z,99705.68
2023-03-17T22:57:05.736Z,99700.63
2023-03-17T23:14:58.813Z,99682.39
2023-03-17T23:17:27.896Z,99684.52
2023-03-17T23:19:54.740Z,99678.92
2023-03-17T23:22:21.143Z,99677.66
2023-03-17T23:24:52.939Z,99677.65
2023-03-17T23:41:20.641Z,99664.91
2023-03-17T23:43:46.651Z,99662.25
2023-03-17T23:46:13.285Z,99663.74
2023-03-17T23:48:42.118Z,99665.77
2023-03-17T23:51:11.424Z,99659.52
2023-03-17T23:53:39.016Z,99659.05
2023-03-17T23:56:07.743Z,99660.31
2023-03-17T23:58:33.671Z,99661.69
